Time;durP1;ratioP1;P1;durP2;ratioP2;P2;SDS_P1;SDS_P2;PMS_P1;PMS_P2;Temp;Humidity;BMP_temperature;BMP_pressure;BME280_temperature;BME280_humidity;BME280_pressure;Samples;Min_cycle;Max_cycle;Signal;HPM_P1;HPM_P2
2021/12/31 00:01:33;;;;;;;6.93;6.53;;;;;;;8.88;13.64;100975.31;5013192;28;20465;-43
2021/12/31 00:04:01;;;;;;;7.00;6.70;;;;;;;8.91;13.23;100972.28;5012719;28;20560;-43
2021/12/31 00:06:31;;;;;;;7.00;6.70;;;;;;;8.95;13.46;100972.75;5013452;28;20422;-44
2021/12/31 00:08:59;;;;;;;7.10;6.70;;;;;;;8.96;12.92;100964.59;5012902;28;20975;-44
2021/12/31 00:11:27;;;;;;;6.77;6.47;;;;;;;8.99;12.83;100977.53;5013088;28;20840;-43
2021/12/31 00:13:54;;;;;;;6.67;6.47;;;;;;;9.00;12.12;100975.69;5011691;28;20466;-44
2021/12/31 00:16:22;;;;;;;7.23;6.70;;;;;;;9.03;11.65;100975.34;5012902;28;20528;-44
2021/12/31 00:18:49;;;;;;;6.67;6.23;;;;;;;9.07;11.32;100977.47;5012990;28;20485;-44
2021/12/31 00:21:17;;;;;;;6.40;6.20;;;;;;;9.12;11.05;100979.56;5013020;28;20809;-44
2021/12/31 00:23:46;;;;;;;6.37;6.07;;;;;;;9.16;9.85;100975.56;5012089;28;20469;-45
2021/12/31 00:26:14;;;;;;;5.97;5.77;;;;;;;9.18;9.70;100971.69;5012954;28;20447;-44
2021/12/31 00:28:41;;;;;;;6.00;5.80;;;;;;;9.22;9.22;100974.81;5012837;28;20923;-44
2021/12/31 00:31:09;;;;;;;5.30;5.20;;;;;;;9.22;10.74;100983.63;5012756;28;20433;-48
2021/12/31 00:33:37;;;;;;;5.63;5.43;;;;;;;9.24;10.63;100984.28;5012173;28;20552;-46
2021/12/31 00:36:04;;;;;;;5.67;5.47;;;;;;;9.28;10.60;100988.22;5012514;28;20447;-44
2021/12/31 00:38:32;;;;;;;5.10;4.80;;;;;;;9.30;10.49;100983.53;5012721;28;20843;-43
2021/12/31 00:41:01;;;;;;;5.60;5.50;;;;;;;9.33;10.33;100977.03;5012811;28;20950;-44
2021/12/31 00:43:28;;;;;;;5.70;5.40;;;;;;;9.33;11.83;100975.19;5009423;28;20454;-45
2021/12/31 00:45:56;;;;;;;5.73;5.43;;;;;;;9.34;11.86;100965.38;5004522;28;20943;-44
2021/12/31 00:48:24;;;;;;;5.20;5.10;;;;;;;9.36;11.44;100968.69;5012729;28;20453;-43
2021/12/31 00:50:51;;;;;;;5.30;5.10;;;;;;;9.35;12.39;100967.84;5012830;28;20433;-45
2021/12/31 00:53:19;;;;;;;5.37;5.20;;;;;;;9.38;10.74;100970.13;5011703;28;20439;-45
2021/12/31 00:55:47;;;;;;;5.70;5.50;;;;;;;9.38;9.16;100971.97;5012480;28;20443;-45
2021/12/31 00:58:16;;;;;;;5.60;5.40;;;;;;;9.41;9.74;100976.94;5012587;28;20481;-48
2021/12/31 01:00:43;;;;;;;6.00;5.80;;;;;;;9.42;10.22;100974.09;5012814;28;20429;-44
2021/12/31 01:03:11;;;;;;;6.63;6.33;;;;;;;9.47;10.09;100980.72;5011858;28;20476;-43
2021/12/31 01:05:39;;;;;;;6.70;6.40;;;;;;;9.50;10.25;100977.69;5012196;28;20532;-42
2021/12/31 01:08:06;;;;;;;7.70;7.30;;;;;;;9.50;10.59;100969.72;5011745;28;20459;-42
2021/12/31 01:10:34;;;;;;;6.97;6.67;;;;;;;9.54;9.44;100978.97;5012142;28;20441;-42
2021/12/31 01:13:07;;;;;;;7.03;6.73;;;;;;;9.55;9.23;100972.63;5011678;28;20441;-42
2021/12/31 01:15:41;;;;;;;7.10;6.77;;;;;;;9.56;8.51;100974.28;5011904;28;20951;-42
2021/12/31 01:18:20;;;;;;;7.37;7.07;;;;;;;9.62;6.37;100970.88;5011556;28;20465;-43
2021/12/31 01:20:47;;;;;;;6.70;6.40;;;;;;;9.64;6.11;100980.34;5011959;28;20419;-43
2021/12/31 01:23:17;;;;;;;7.70;7.10;;;;;;;9.68;6.21;100986.09;5011227;28;20437;-44
2021/12/31 01:25:45;;;;;;;7.70;7.20;;;;;;;9.70;7.66;100976.13;5014298;28;20437;-44
2021/12/31 01:28:13;;;;;;;7.10;6.60;;;;;;;9.68;8.02;100981.59;5015705;28;20505;-44
2021/12/31 01:30:43;;;;;;;6.80;6.40;;;;;;;9.69;7.82;100980.59;5015576;28;20531;-41
2021/12/31 01:33:10;;;;;;;8.77;7.97;;;;;;;9.70;8.01;100987.59;5014840;28;20437;-42
2021/12/31 01:35:38;;;;;;;8.30;7.53;;;;;;;9.71;7.16;100978.56;5015653;28;20805;-43
2021/12/31 01:38:06;;;;;;;8.50;7.47;;;;;;;9.71;7.75;100978.56;5015440;28;20506;-42
2021/12/31 01:40:33;;;;;;;7.73;7.10;;;;;;;9.73;8.71;100981.06;5015560;28;20532;-42
2021/12/31 01:43:01;;;;;;;11.90;7.40;;;;;;;9.71;8.92;100975.91;5015051;28;20433;-42
2021/12/31 01:45:32;;;;;;;8.53;7.63;;;;;;;9.70;8.75;100982.28;5014768;28;20471;-42
2021/12/31 01:48:08;;;;;;;12.33;7.40;;;;;;;9.70;9.04;100987.59;5015272;28;20487;-43
2021/12/31 01:50:37;;;;;;;9.53;7.53;;;;;;;9.70;8.65;100987.59;5015222;28;20464;-42
2021/12/31 01:53:05;;;;;;;11.67;8.47;;;;;;;9.69;9.43;100982.44;5014792;28;20592;-43
2021/12/31 01:55:34;;;;;;;16.60;8.20;;;;;;;9.71;9.25;100988.41;5014801;28;20531;-43
2021/12/31 01:58:04;;;;;;;13.90;8.13;;;;;;;9.71;8.83;100994.56;5014806;28;20453;-41
2021/12/31 02:00:32;;;;;;;12.03;8.60;;;;;;;9.72;7.76;100990.06;5014863;28;20563;-41
2021/12/31 02:03:02;;;;;;;9.63;7.70;;;;;;;9.74;7.66;100991.53;5014638;28;20495;-41
2021/12/31 02:05:30;;;;;;;8.93;8.17;;;;;;;9.73;7.71;100975.75;5014579;28;20532;-41
2021/12/31 02:07:58;;;;;;;9.57;8.50;;;;;;;9.73;6.01;100984.56;5014780;28;20449;-43
2021/12/31 02:10:27;;;;;;;8.73;7.87;;;;;;;9.76;5.34;100986.84;5014934;28;20855;-42
2021/12/31 02:12:56;;;;;;;9.40;8.80;;;;;;;9.76;5.45;100980.69;5014408;28;20443;-43
2021/12/31 02:15:24;;;;;;;10.10;8.50;;;;;;;9.76;5.64;100980.69;5014328;28;20475;-42
2021/12/31 02:17:53;;;;;;;9.27;8.47;;;;;;;9.76;5.89;100986.84;5014669;28;20548;-42
2021/12/31 02:20:22;;;;;;;13.50;7.73;;;;;;;9.76;5.70;100976.22;5014554;28;20827;-41
2021/12/31 02:22:55;;;;;;;10.43;7.50;;;;;;;9.76;4.88;100992.19;5014298;28;20523;-42
2021/12/31 02:25:25;;;;;;;8.10;7.10;;;;;;;9.76;5.41;100980.69;5013933;28;20472;-42
2021/12/31 02:27:52;;;;;;;9.37;8.57;;;;;;;9.74;5.14;100980.03;5014460;28;20645;-41
2021/12/31 02:30:20;;;;;;;8.13;7.70;;;;;;;9.74;4.97;100983.53;5014486;28;20524;-43
2021/12/31 02:32:48;;;;;;;8.20;7.70;;;;;;;9.74;5.17;100978.22;5014204;28;20536;-42
2021/12/31 02:35:16;;;;;;;9.23;7.87;;;;;;;9.72;4.98;100971.41;5013782;28;21010;-43
2021/12/31 02:37:45;;;;;;;8.30;7.60;;;;;;;9.71;4.69;100959.09;5013254;28;20535;-42
2021/12/31 02:40:16;;;;;;;10.67;8.70;;;;;;;9.73;4.59;100968.59;5014025;28;20978;-43
2021/12/31 02:42:44;;;;;;;8.90;8.10;;;;;;;9.71;5.10;100953.78;5011238;28;20816;-43
2021/12/31 02:45:12;;;;;;;12.33;8.20;;;;;;;9.72;4.80;100952.78;5005423;28;20457;-42
2021/12/31 02:47:45;;;;;;;9.63;8.60;;;;;;;9.73;4.45;100952.59;5013966;28;20469;-42
2021/12/31 02:50:15;;;;;;;9.70;8.80;;;;;;;9.73;5.04;100949.94;5014212;28;20849;-42
2021/12/31 02:52:46;;;;;;;15.57;9.53;;;;;;;9.72;5.50;100966.94;5014036;28;20517;-42
2021/12/31 02:55:14;;;;;;;12.03;9.97;;;;;;;9.74;4.67;100964.06;5013401;28;20471;-42
2021/12/31 02:57:43;;;;;;;13.67;10.43;;;;;;;9.77;4.47;100964.53;5013862;28;20953;-41
2021/12/31 03:00:12;;;;;;;11.13;10.23;;;;;;;9.76;4.56;100975.38;5013668;28;20473;-45
2021/12/31 03:02:42;;;;;;;17.43;11.40;;;;;;;9.78;4.98;100974.16;5013397;28;20437;-43
2021/12/31 03:05:10;;;;;;;24.33;12.63;;;;;;;9.73;5.44;100973.91;5013196;28;20835;-41
2021/12/31 03:07:38;;;;;;;23.37;12.90;;;;;;;9.74;5.89;100956.06;5013557;28;20436;-41
2021/12/31 03:10:10;;;;;;;33.67;12.70;;;;;;;9.73;5.47;100965.91;5013847;28;20532;-41
2021/12/31 03:12:41;;;;;;;22.37;12.07;;;;;;;9.72;6.79;100963.44;5013437;28;20441;-41
2021/12/31 03:15:10;;;;;;;25.70;12.33;;;;;;;9.71;7.64;100973.25;5012969;28;20548;-44
2021/12/31 03:17:41;;;;;;;25.30;13.10;;;;;;;9.68;7.76;100970.97;5013253;28;20441;-41
2021/12/31 03:20:12;;;;;;;14.07;12.47;;;;;;;9.67;7.34;100969.31;5013357;28;20477;-44
2021/12/31 03:22:41;;;;;;;32.53;14.10;;;;;;;9.67;6.96;100964.00;5013218;28;20437;-42
2021/12/31 03:25:11;;;;;;;28.30;13.30;;;;;;;9.68;7.43;100960.31;5012875;28;20492;-42
2021/12/31 03:27:40;;;;;;;37.37;13.27;;;;;;;9.67;8.89;100963.16;5013114;28;20445;-43
2021/12/31 03:30:10;;;;;;;29.07;14.30;;;;;;;9.66;9.63;100967.66;5013457;28;20894;-43
2021/12/31 03:32:38;;;;;;;46.17;13.47;;;;;;;9.64;11.03;100969.69;5013064;28;20516;-43
2021/12/31 03:35:06;;;;;;;25.70;13.63;;;;;;;9.64;10.25;100977.69;5012659;28;20511;-42
2021/12/31 03:37:33;;;;;;;30.07;12.50;;;;;;;9.61;10.80;100974.56;5013164;28;20437;-42
2021/12/31 03:40:01;;;;;;;23.07;12.60;;;;;;;9.62;11.68;100969.03;5012994;28;20473;-43
2021/12/31 03:42:31;;;;;;;32.30;13.30;;;;;;;9.60;12.37;100976.38;5012866;28;20430;-46
2021/12/31 03:44:59;;;;;;;24.50;12.00;;;;;;;9.58;12.83;100982.91;4996307;28;20472;-46
2021/12/31 03:47:27;;;;;;;29.60;12.70;;;;;;;9.58;13.00;100988.25;5012782;28;20441;-43
2021/12/31 03:49:54;;;;;;;17.73;13.07;;;;;;;9.59;13.51;100982.72;5013014;28;20437;-43
2021/12/31 03:52:22;;;;;;;29.50;13.00;;;;;;;9.63;13.27;100964.53;5012832;28;20433;-45
2021/12/31 03:54:49;;;;;;;24.10;13.53;;;;;;;9.63;14.84;100975.19;5012212;28;20465;-43
2021/12/31 03:57:17;;;;;;;27.40;12.67;;;;;;;9.60;15.45;100976.38;5012983;28;20532;-43
2021/12/31 03:59:46;;;;;;;27.97;13.20;;;;;;;9.61;16.78;100966.56;5012867;28;20480;-42
2021/12/31 04:02:13;;;;;;;28.37;11.63;;;;;;;9.64;17.83;100960.88;5012729;28;20433;-43
2021/12/31 04:04:41;;;;;;;25.97;12.40;;;;;;;9.63;17.85;100959.22;5012377;28;20552;-42
2021/12/31 04:07:09;;;;;;;31.07;13.00;;;;;;;9.62;19.61;100960.22;5012916;28;20429;-45
2021/12/31 04:09:36;;;;;;;31.93;13.47;;;;;;;9.61;20.22;100963.91;5012632;28;20460;-44
2021/12/31 04:12:05;;;;;;;26.47;12.67;;;;;;;9.62;20.60;100955.72;5012785;28;20441;-42
2021/12/31 04:14:32;;;;;;;28.90;12.57;;;;;;;9.62;21.42;100957.56;5012110;28;20468;-49
2021/12/31 04:17:01;;;;;;;28.90;13.63;;;;;;;9.64;20.87;100960.88;5012348;28;20429;-44
2021/12/31 04:19:30;;;;;;;26.33;12.47;;;;;;;9.63;21.68;100962.72;5012394;28;21016;-43
2021/12/31 04:21:58;;;;;;;29.33;11.77;;;;;;;9.63;22.68;100957.38;5012180;28;20841;-44
2021/12/31 04:24:41;;;;;;;23.17;12.47;;;;;;;9.61;22.96;100961.25;5011703;28;20469;-44
2021/12/31 04:27:08;;;;;;;27.57;12.70;;;;;;;9.62;22.73;100952.22;5012553;28;20429;-45
2021/12/31 04:29:36;;;;;;;24.30;12.10;;;;;;;9.64;22.15;100966.19;5012239;28;21065;-45
2021/12/31 04:32:06;;;;;;;28.13;11.70;;;;;;;9.64;22.01;100960.88;5012198;28;20436;-46
2021/12/31 04:34:34;;;;;;;25.23;12.27;;;;;;;9.64;22.41;100967.03;5011647;28;20475;-44
2021/12/31 04:37:01;;;;;;;29.47;12.60;;;;;;;9.63;21.88;100972.53;5012400;28;20432;-45
2021/12/31 04:39:29;;;;;;;23.00;11.67;;;;;;;9.64;20.76;100966.19;5012215;28;20457;-46
2021/12/31 04:41:56;;;;;;;27.80;10.57;;;;;;;9.65;19.54;100959.84;5012102;28;20485;-45
2021/12/31 04:44:24;;;;;;;20.13;10.60;;;;;;;9.64;20.72;100956.38;5002807;28;20576;-45
2021/12/31 04:46:52;;;;;;;25.63;11.00;;;;;;;9.64;21.95;100959.03;5010165;28;20521;-46
2021/12/31 04:49:22;;;;;;;22.27;11.60;;;;;;;9.65;21.92;100963.34;5012114;28;20449;-46
2021/12/31 04:51:49;;;;;;;27.47;11.93;;;;;;;9.66;20.97;100953.53;5011992;28;20439;-44
2021/12/31 04:54:17;;;;;;;21.20;11.60;;;;;;;9.63;21.10;100957.38;5011314;28;20469;-45
2021/12/31 04:56:44;;;;;;;16.97;10.70;;;;;;;9.65;18.75;100962.50;5012118;28;20433;-43
2021/12/31 04:59:12;;;;;;;22.30;11.00;;;;;;;9.62;17.86;100950.41;5012217;28;20485;-43
2021/12/31 05:01:40;;;;;;;19.07;11.47;;;;;;;9.64;17.00;100953.72;5016017;28;20886;-43
2021/12/31 05:04:08;;;;;;;20.87;12.03;;;;;;;9.65;16.15;100951.84;5015417;28;20488;-44
2021/12/31 05:06:38;;;;;;;22.67;10.93;;;;;;;9.68;15.97;100960.31;5016361;28;20931;-42
2021/12/31 05:09:05;;;;;;;26.57;11.90;;;;;;;9.68;16.43;100951.50;5016017;28;21220;-45
2021/12/31 05:11:33;;;;;;;28.43;12.57;;;;;;;9.70;16.34;100950.31;5016404;28;20437;-43
2021/12/31 05:14:00;;;;;;;39.03;12.53;;;;;;;9.70;15.99;100946.81;5015515;28;20544;-43
2021/12/31 05:16:28;;;;;;;32.27;13.90;;;;;;;9.72;14.46;100942.13;5016249;28;20516;-45
2021/12/31 05:18:56;;;;;;;25.60;13.03;;;;;;;9.74;13.32;100937.44;5015917;28;20471;-42
2021/12/31 05:21:23;;;;;;;25.37;13.80;;;;;;;9.74;14.85;100940.09;5015580;28;20564;-42
2021/12/31 05:23:52;;;;;;;28.07;13.30;;;;;;;9.77;16.47;100961.03;5015101;28;20461;-46
2021/12/31 05:26:20;;;;;;;29.27;12.90;;;;;;;9.77;15.23;100950.38;5015752;28;20819;-44
2021/12/31 05:28:47;;;;;;;25.13;12.37;;;;;;;9.79;15.53;100977.66;5015722;28;20467;-44
2021/12/31 05:31:16;;;;;;;21.80;12.20;;;;;;;9.84;15.64;100969.94;5015870;28;20433;-45
2021/12/31 05:33:44;;;;;;;17.13;11.00;;;;;;;9.83;17.23;100957.63;5015154;28;20469;-43
2021/12/31 05:36:11;;;;;;;31.93;12.57;;;;;;;9.81;17.10;100955.16;5015784;28;20524;-44
2021/12/31 05:38:39;;;;;;;18.53;12.20;;;;;;;9.81;16.64;100959.66;5015637;28;20475;-43
2021/12/31 05:41:08;;;;;;;26.53;12.83;;;;;;;9.83;16.23;100961.13;5015499;28;20814;-42
2021/12/31 05:43:36;;;;;;;22.47;13.07;;;;;;;9.83;16.33;100965.59;5012248;28;20461;-43
2021/12/31 05:46:03;;;;;;;26.63;15.53;;;;;;;9.81;17.38;100949.84;5007522;28;20429;-43
2021/12/31 05:48:31;;;;;;;32.20;13.77;;;;;;;9.84;15.79;100943.31;5015563;28;20457;-44
2021/12/31 05:50:59;;;;;;;18.13;13.50;;;;;;;9.83;14.93;100953.13;5015528;28;20433;-46
2021/12/31 05:53:26;;;;;;;26.23;13.63;;;;;;;9.84;14.96;100960.13;5014952;28;20453;-42
2021/12/31 05:55:54;;;;;;;21.70;13.30;;;;;;;9.83;16.10;100945.13;5015202;28;20447;-43
2021/12/31 05:58:23;;;;;;;29.50;13.33;;;;;;;9.83;15.73;100923.81;5015419;28;20547;-43
2021/12/31 06:00:51;;;;;;;30.60;15.00;;;;;;;9.83;15.53;100942.47;5015146;28;20473;-42
2021/12/31 06:03:19;;;;;;;33.87;15.73;;;;;;;9.84;15.29;100948.63;5014678;28;20440;-43
2021/12/31 06:05:47;;;;;;;21.50;14.87;;;;;;;9.83;14.86;100934.47;5015040;28;20440;-45
2021/12/31 06:08:15;;;;;;;27.17;14.37;;;;;;;9.84;15.19;100940.63;5014910;28;20457;-43
2021/12/31 06:10:43;;;;;;;20.40;13.10;;;;;;;9.84;14.71;100919.34;5015399;28;20429;-46
2021/12/31 06:13:12;;;;;;;24.57;14.00;;;;;;;9.86;13.84;100922.63;5014266;28;20439;-45
2021/12/31 06:15:42;;;;;;;30.03;15.27;;;;;;;9.87;15.68;100927.78;5014693;28;20445;-43
2021/12/31 06:18:11;;;;;;;41.17;13.07;;;;;;;9.86;13.97;100909.31;5014745;28;20476;-41
2021/12/31 06:20:38;;;;;;;24.67;15.03;;;;;;;9.85;14.86;100924.47;5015019;28;20524;-46
2021/12/31 06:23:06;;;;;;;23.63;14.23;;;;;;;9.83;15.53;100917.66;5014437;28;20448;-43
2021/12/31 06:25:34;;;;;;;23.43;13.87;;;;;;;9.85;15.16;100921.81;5014973;28;20448;-44
2021/12/31 06:28:01;;;;;;;38.47;14.53;;;;;;;9.85;16.66;100921.00;5014771;28;20457;-45
2021/12/31 06:30:29;;;;;;;24.50;14.40;;;;;;;9.84;17.59;100922.00;5014643;28;20521;-45
2021/12/31 06:33:00;;;;;;;23.63;15.10;;;;;;;9.82;17.64;100914.22;5014311;28;20429;-46
2021/12/31 06:35:27;;;;;;;19.47;12.87;;;;;;;9.84;16.65;100911.34;5014218;28;20464;-41
2021/12/31 06:37:57;;;;;;;28.70;14.43;;;;;;;9.86;18.09;100927.94;4986120;28;20463;-44
2021/12/31 06:40:25;;;;;;;26.60;15.00;;;;;;;9.87;19.54;100934.94;4992898;28;20440;-43
2021/12/31 06:42:53;;;;;;;29.70;15.03;;;;;;;9.86;20.64;100934.09;5003510;28;20561;-46
2021/12/31 06:45:21;;;;;;;23.63;14.50;;;;;;;9.86;21.63;100920.78;5004465;28;20469;-44
2021/12/31 06:47:49;;;;;;;25.40;12.60;;;;;;;9.86;21.94;100920.78;5002947;28;20545;-44
2021/12/31 06:50:18;;;;;;;24.80;12.80;;;;;;;9.91;22.48;100928.22;5013853;28;20951;-46
2021/12/31 06:52:47;;;;;;;22.50;13.63;;;;;;;9.91;23.60;100928.22;5013792;28;20456;-42
2021/12/31 06:55:15;;;;;;;20.17;11.80;;;;;;;9.93;25.27;100923.53;5013157;28;20469;-47
2021/12/31 06:57:42;;;;;;;25.50;13.20;;;;;;;9.94;25.17;100933.19;5003132;28;20446;-43
2021/12/31 07:00:11;;;;;;;24.33;12.97;;;;;;;9.96;26.15;100923.16;5005302;28;20516;-48
2021/12/31 07:02:38;;;;;;;20.47;12.50;;;;;;;9.96;26.31;100924.00;5013349;28;20480;-46
2021/12/31 07:05:07;;;;;;;22.67;12.93;;;;;;;9.94;26.54;100917.19;5011865;28;21025;-43
2021/12/31 07:07:36;;;;;;;17.80;13.10;;;;;;;9.95;24.48;100930.31;5013539;28;20433;-45
2021/12/31 07:10:04;;;;;;;26.90;12.50;;;;;;;9.95;22.70;100932.97;5013131;28;20452;-42
2021/12/31 07:12:32;;;;;;;32.87;12.27;;;;;;;9.94;22.86;100939.34;5013216;28;20435;-44
2021/12/31 07:15:00;;;;;;;20.43;11.70;;;;;;;9.95;23.79;100937.47;5003088;28;20466;-44
2021/12/31 07:17:29;;;;;;;16.97;11.63;;;;;;;9.98;24.07;100931.78;4994090;28;20446;-43
2021/12/31 07:19:58;;;;;;;25.37;13.33;;;;;;;9.98;24.24;100937.94;4993561;28;20442;-42
2021/12/31 07:22:25;;;;;;;27.70;12.30;;;;;;;9.96;25.23;100944.47;4993022;28;20484;-43
2021/12/31 07:24:54;;;;;;;23.20;12.47;;;;;;;9.97;25.08;100944.25;4992908;28;20864;-42
2021/12/31 07:27:22;;;;;;;19.80;13.00;;;;;;;9.97;24.60;100935.47;4993743;28;20533;-46
2021/12/31 07:29:49;;;;;;;22.50;12.13;;;;;;;10.01;24.12;100934.91;4993670;28;20468;-43
2021/12/31 07:32:17;;;;;;;17.27;12.57;;;;;;;10.02;26.26;100927.72;5001429;28;20433;-44
2021/12/31 07:34:45;;;;;;;23.43;12.60;;;;;;;10.02;26.42;100933.06;5008983;28;20460;-46
2021/12/31 07:37:12;;;;;;;30.20;13.00;;;;;;;10.04;26.51;100947.00;5012902;28;20436;-43
2021/12/31 07:39:46;;;;;;;24.33;13.77;;;;;;;10.05;29.31;100938.00;5002943;28;20463;-43
2021/12/31 07:42:15;;;;;;;21.43;11.30;;;;;;;10.08;30.35;100936.81;4989666;28;20501;-43
2021/12/31 07:44:43;;;;;;;17.10;12.07;;;;;;;10.09;32.56;100938.47;4999128;28;20466;-43
2021/12/31 07:47:10;;;;;;;22.90;13.30;;;;;;;10.08;34.42;100926.97;5010793;28;20957;-42
2021/12/31 07:49:40;;;;;;;14.53;11.83;;;;;;;10.07;34.33;100925.31;5010805;28;20457;-44
2021/12/31 07:52:08;;;;;;;20.20;12.73;;;;;;;10.11;35.33;100923.94;5007792;28;20821;-42
2021/12/31 07:54:36;;;;;;;16.60;12.10;;;;;;;10.11;36.23;100939.94;5003944;28;20849;-43
2021/12/31 07:57:04;;;;;;;23.67;12.20;;;;;;;10.13;36.43;100927.25;5008024;28;20437;-43
2021/12/31 07:59:33;;;;;;;16.20;11.90;;;;;;;10.13;37.57;100937.91;4999831;28;20462;-46
2021/12/31 08:02:00;;;;;;;29.07;12.60;;;;;;;10.12;37.93;100928.25;4989737;28;20524;-45
2021/12/31 08:04:33;;;;;;;16.30;12.33;;;;;;;10.11;35.28;100939.09;5002391;28;20889;-43
2021/12/31 08:07:01;;;;;;;16.10;11.13;;;;;;;10.08;35.70;100940.31;4998616;28;20545;-43
2021/12/31 08:09:28;;;;;;;26.90;12.17;;;;;;;10.08;34.47;100948.28;4999222;28;20466;-43
2021/12/31 08:11:56;;;;;;;23.87;12.60;;;;;;;10.03;33.05;100932.84;4996801;28;20444;-43
2021/12/31 08:14:23;;;;;;;29.43;13.40;;;;;;;10.05;32.30;100954.00;4997169;28;20458;-44
2021/12/31 08:16:53;;;;;;;27.23;13.67;;;;;;;10.05;33.02;100943.34;4999384;28;20493;-43
2021/12/31 08:19:21;;;;;;;25.30;11.70;;;;;;;10.06;32.29;100949.50;4984107;28;20580;-43
2021/12/31 08:21:48;;;;;;;18.97;12.70;;;;;;;10.07;32.38;100945.81;4982834;28;20461;-42
2021/12/31 08:24:16;;;;;;;20.73;11.27;;;;;;;10.10;33.50;100948.09;4980574;28;20466;-43
2021/12/31 08:26:44;;;;;;;12.93;11.63;;;;;;;10.11;35.64;100960.41;4982889;28;20439;-45
2021/12/31 08:29:12;;;;;;;19.73;11.90;;;;;;;10.13;37.03;100956.56;4981415;28;20469;-42
2021/12/31 08:31:41;;;;;;;20.77;12.40;;;;;;;10.12;39.42;100943.41;4982277;28;21047;-44
2021/12/31 08:34:10;;;;;;;21.90;11.53;;;;;;;10.14;41.89;100952.91;4977705;28;20459;-44
2021/12/31 08:36:38;;;;;;;24.93;12.20;;;;;;;10.13;43.92;100931.72;4982183;28;20517;-43
2021/12/31 08:39:07;;;;;;;21.87;11.80;;;;;;;10.14;44.06;100936.91;4982452;28;20549;-43
2021/12/31 08:41:35;;;;;;;23.33;11.17;;;;;;;10.15;46.54;100940.41;4981833;28;20543;-44
2021/12/31 08:44:15;;;;;;;18.00;11.10;;;;;;;10.15;48.75;100941.25;4979143;28;20502;-41
2021/12/31 08:46:44;;;;;;;16.97;10.63;;;;;;;10.15;51.11;100954.56;4980936;28;20514;-41
2021/12/31 08:49:13;;;;;;;13.53;9.97;;;;;;;10.18;52.93;100938.19;4983353;28;20523;-42
2021/12/31 08:51:41;;;;;;;17.00;10.27;;;;;;;10.15;53.27;100949.25;4982738;28;20450;-46
2021/12/31 08:54:08;;;;;;;17.63;9.70;;;;;;;10.17;53.51;100933.03;4980505;28;20497;-44
2021/12/31 08:56:36;;;;;;;14.00;8.80;;;;;;;10.16;54.47;100936.72;4982412;28;20772;-43
2021/12/31 08:59:04;;;;;;;10.70;8.50;;;;;;;10.15;56.73;100938.59;4984909;28;20449;-44
2021/12/31 09:01:32;;;;;;;14.00;9.40;;;;;;;10.14;57.61;100936.91;4983033;28;20438;-42
2021/12/31 09:03:59;;;;;;;17.23;10.60;;;;;;;10.15;59.01;100953.75;4982079;28;20474;-46
2021/12/31 09:06:28;;;;;;;18.13;9.27;;;;;;;10.16;59.58;100937.53;4980977;28;20442;-43
2021/12/31 09:08:56;;;;;;;24.83;10.07;;;;;;;10.15;60.17;100932.41;4981314;28;20466;-45
2021/12/31 09:11:23;;;;;;;20.67;9.10;;;;;;;10.12;59.69;100944.25;4981422;28;20434;-45
2021/12/31 09:13:54;;;;;;;17.17;10.30;;;;;;;10.13;60.98;100947.72;4981290;28;20462;-45
2021/12/31 09:16:22;;;;;;;13.13;8.93;;;;;;;10.13;62.47;100945.06;4980679;28;21143;-45
2021/12/31 09:18:50;;;;;;;14.73;9.07;;;;;;;10.11;61.93;100950.59;4982569;28;20478;-43
2021/12/31 09:21:17;;;;;;;24.87;11.03;;;;;;;10.11;62.04;100953.25;4981635;28;20925;-45
2021/12/31 09:23:46;;;;;;;11.03;8.50;;;;;;;10.10;61.76;100958.75;4981221;28;20467;-42
2021/12/31 09:26:15;;;;;;;18.33;9.90;;;;;;;10.07;62.09;100957.28;4981431;28;20862;-42
2021/12/31 09:28:43;;;;;;;21.43;10.07;;;;;;;10.11;62.07;100944.44;4981854;28;20538;-43
2021/12/31 09:31:11;;;;;;;16.00;9.60;;;;;;;10.09;62.80;100957.94;4979927;28;20450;-43
2021/12/31 09:33:39;;;;;;;21.80;9.73;;;;;;;10.06;59.57;100952.16;4980444;28;20901;-44
2021/12/31 09:36:07;;;;;;;17.87;11.23;;;;;;;10.05;58.42;100959.34;4983323;28;21175;-46
2021/12/31 09:38:34;;;;;;;27.93;11.93;;;;;;;10.03;56.59;100956.03;4981798;28;20907;-43
2021/12/31 09:41:03;;;;;;;20.03;10.20;;;;;;;9.99;55.16;100957.41;4981863;28;20439;-44
2021/12/31 09:43:32;;;;;;;16.57;9.67;;;;;;;9.97;54.48;100956.78;4981078;28;20935;-43
2021/12/31 09:46:00;;;;;;;22.47;9.70;;;;;;;9.94;53.84;100952.66;4981992;28;20437;-43
2021/12/31 09:48:28;;;;;;;17.80;10.43;;;;;;;9.93;52.62;100956.34;4984375;28;20462;-44
2021/12/31 09:50:57;;;;;;;15.90;10.63;;;;;;;9.92;53.17;100940.53;4986745;28;20446;-42
2021/12/31 09:53:26;;;;;;;21.03;10.63;;;;;;;9.89;51.85;100959.53;4984223;28;20816;-44
2021/12/31 09:55:55;;;;;;;11.13;9.93;;;;;;;9.89;51.93;100960.38;4987185;28;20885;-42
2021/12/31 09:58:27;;;;;;;19.27;10.33;;;;;;;9.88;52.86;100947.25;4983217;28;21197;-42
2021/12/31 10:00:59;;;;;;;13.97;9.17;;;;;;;9.88;53.39;100955.25;4984754;28;20432;-42
2021/12/31 10:03:29;;;;;;;17.73;9.53;;;;;;;9.91;51.56;100952.22;4982909;28;20536;-44
2021/12/31 10:05:59;;;;;;;18.30;9.60;;;;;;;9.92;53.63;100944.00;4984162;28;20438;-43
2021/12/31 10:08:28;;;;;;;16.10;10.00;;;;;;;9.94;52.71;100952.66;4984231;28;20545;-43
2021/12/31 10:11:10;;;;;;;16.40;10.03;;;;;;;9.93;54.83;100943.00;4983444;28;20460;-43
2021/12/31 10:13:42;;;;;;;14.60;10.50;;;;;;;9.94;53.18;100951.84;4982530;28;20553;-44
2021/12/31 10:16:21;;;;;;;21.67;10.83;;;;;;;9.91;48.17;100947.72;4980183;28;20453;-43
2021/12/31 10:18:49;;;;;;;19.83;10.03;;;;;;;9.89;47.49;100938.22;4983875;28;20574;-43
2021/12/31 10:21:20;;;;;;;18.10;10.17;;;;;;;9.87;43.34;100937.59;4983584;28;20835;-43
2021/12/31 10:23:48;;;;;;;26.50;11.13;;;;;;;9.86;42.42;100943.94;4984284;28;20494;-43
2021/12/31 10:26:18;;;;;;;18.73;10.77;;;;;;;9.85;40.79;100934.31;4984333;28;20434;-43
2021/12/31 10:28:56;;;;;;;22.30;10.40;;;;;;;9.81;39.34;100928.53;4985943;28;20530;-43
2021/12/31 10:31:28;;;;;;;21.83;11.10;;;;;;;9.83;38.48;100936.31;4979992;28;20432;-42
2021/12/31 10:33:56;;;;;;;13.83;10.43;;;;;;;9.81;36.78;100930.34;4984655;28;20459;-43
2021/12/31 10:36:35;;;;;;;14.73;10.17;;;;;;;9.79;34.50;100948.38;4985022;28;20439;-43
2021/12/31 10:39:16;;;;;;;25.20;10.70;;;;;;;9.82;33.84;100945.34;4985133;28;21000;-42
2021/12/31 10:41:45;;;;;;;14.73;9.40;;;;;;;9.85;34.19;100947.63;4984853;28;20518;-44
2021/12/31 10:44:14;;;;;;;15.77;10.63;;;;;;;9.82;33.99;100954.16;4979946;28;20485;-44
2021/12/31 10:46:43;;;;;;;16.63;10.47;;;;;;;9.81;32.87;100944.50;4982615;28;20900;-42
2021/12/31 10:49:12;;;;;;;23.50;10.57;;;;;;;9.78;30.03;100933.41;4978653;28;20458;-42
2021/12/31 10:51:43;;;;;;;9.87;8.73;;;;;;;9.80;29.18;100936.69;4982677;28;20444;-43
2021/12/31 10:54:28;;;;;;;15.00;8.93;;;;;;;9.77;30.32;100937.06;4977965;28;20459;-44
2021/12/31 10:56:57;;;;;;;10.23;9.23;;;;;;;9.77;27.80;100937.06;4983048;28;20518;-42
2021/12/31 10:59:26;;;;;;;11.53;8.40;;;;;;;9.73;28.07;100938.47;4982870;28;20459;-42
2021/12/31 11:01:54;;;;;;;9.83;8.83;;;;;;;9.77;26.79;100947.72;4984258;28;20440;-45
2021/12/31 11:04:23;;;;;;;9.87;8.87;;;;;;;9.79;26.34;100951.03;4981555;28;20483;-43
2021/12/31 11:06:51;;;;;;;15.20;9.33;;;;;;;9.76;24.85;100954.06;4984405;28;20477;-44
2021/12/31 11:09:22;;;;;;;9.40;8.63;;;;;;;9.77;23.78;100945.03;4983658;28;20465;-41
2021/12/31 11:11:51;;;;;;;9.63;8.80;;;;;;;9.76;23.36;100954.06;4984764;28;20530;-45
2021/12/31 11:14:19;;;;;;;11.83;9.70;;;;;;;9.79;22.48;100951.03;4982559;28;20466;-44
2021/12/31 11:16:48;;;;;;;11.77;8.40;;;;;;;9.76;21.58;100941.59;4984914;28;20756;-43
2021/12/31 11:19:16;;;;;;;12.67;7.80;;;;;;;9.76;22.84;100954.91;4983681;28;20469;-44
2021/12/31 11:21:49;;;;;;;10.77;8.30;;;;;;;9.77;23.09;100945.03;4983328;28;20443;-43
2021/12/31 11:24:31;;;;;;;9.87;8.37;;;;;;;9.76;22.14;100951.41;4981920;28;20570;-43
2021/12/31 11:27:00;;;;;;;9.40;8.60;;;;;;;9.75;22.21;100949.75;4985901;28;20525;-44
2021/12/31 11:29:45;;;;;;;11.10;8.87;;;;;;;9.74;22.06;100950.75;4981556;28;21211;-42